sensor_id;sensor_type;location;lat;lon;timestamp;P1;durP1;ratioP1;P2;durP2;ratioP2
21527;SDS011;10925;49.102;-0.370;2023-04-15T00:02:23;7.35;;;1.30;;
21527;SDS011;10925;49.102;-0.370;2023-04-15T00:04:51;8.48;;;1.33;;
21527;SDS011;10925;49.102;-0.370;2023-04-15T00:07:18;9.10;;;1.30;;
21527;SDS011;10925;49.102;-0.370;2023-04-15T00:09:45;5.57;;;1.65;;
21527;SDS011;10925;49.102;-0.370;2023-04-15T00:12:12;3.58;;;0.85;;
21527;SDS011;10925;49.102;-0.370;2023-04-15T00:14:38;7.28;;;1.02;;
21527;SDS011;10925;49.102;-0.370;2023-04-15T00:17:03;2.58;;;0.90;;
21527;SDS011;10925;49.102;-0.370;2023-04-15T00:19:31;9.25;;;1.05;;
21527;SDS011;10925;49.102;-0.370;2023-04-15T00:21:57;5.57;;;1.20;;
21527;SDS011;10925;49.102;-0.370;2023-04-15T00:24:24;5.45;;;0.88;;
21527;SDS011;10925;49.102;-0.370;2023-04-15T00:26:52;5.78;;;1.10;;
21527;SDS011;10925;49.102;-0.370;2023-04-15T00:29:18;4.78;;;1.10;;
21527;SDS011;10925;49.102;-0.370;2023-04-15T00:31:43;2.22;;;0.70;;
21527;SDS011;10925;49.102;-0.370;2023-04-15T00:34:09;3.70;;;1.13;;
21527;SDS011;10925;49.102;-0.370;2023-04-15T00:36:34;2.90;;;0.75;;
21527;SDS011;10925;49.102;-0.370;2023-04-15T00:39:00;5.45;;;1.70;;
21527;SDS011;10925;49.102;-0.370;2023-04-15T00:41:28;5.35;;;1.10;;
21527;SDS011;10925;49.102;-0.370;2023-04-15T00:53:40;4.40;;;1.02;;
21527;SDS011;10925;49.102;-0.370;2023-04-15T00:56:07;4.63;;;0.77;;
21527;SDS011;10925;49.102;-0.370;2023-04-15T00:58:35;7.38;;;1.10;;
21527;SDS011;10925;49.102;-0.370;2023-04-15T01:01:03;9.80;;;1.52;;
21527;SDS011;10925;49.102;-0.370;2023-04-15T01:03:28;6.30;;;1.30;;
21527;SDS011;10925;49.102;-0.370;2023-04-15T01:05:54;10.95;;;1.50;;
21527;SDS011;10925;49.102;-0.370;2023-04-15T01:08:27;11.90;;;1.40;;
21527;SDS011;10925;49.102;-0.370;2023-04-15T01:10:58;7.15;;;1.60;;
21527;SDS011;10925;49.102;-0.370;2023-04-15T01:13:25;10.40;;;1.33;;
21527;SDS011;10925;49.102;-0.370;2023-04-15T01:15:56;8.40;;;1.15;;
21527;SDS011;10925;49.102;-0.370;2023-04-15T01:18:22;3.13;;;1.05;;
21527;SDS011;10925;49.102;-0.370;2023-04-15T01:20:48;5.63;;;1.13;;
21527;SDS011;10925;49.102;-0.370;2023-04-15T01:23:13;8.95;;;1.25;;
21527;SDS011;10925;49.102;-0.370;2023-04-15T01:25:39;3.67;;;0.88;;
21527;SDS011;10925;49.102;-0.370;2023-04-15T01:28:15;9.05;;;0.98;;
21527;SDS011;10925;49.102;-0.370;2023-04-15T01:30:41;6.85;;;0.98;;
21527;SDS011;10925;49.102;-0.370;2023-04-15T01:33:09;10.50;;;1.00;;
21527;SDS011;10925;49.102;-0.370;2023-04-15T01:35:37;3.53;;;1.00;;
21527;SDS011;10925;49.102;-0.370;2023-04-15T01:38:05;11.68;;;1.45;;
21527;SDS011;10925;49.102;-0.370;2023-04-15T01:40:32;2.90;;;1.00;;
21527;SDS011;10925;49.102;-0.370;2023-04-15T01:42:58;6.95;;;0.98;;
21527;SDS011;10925;49.102;-0.370;2023-04-15T01:45:23;2.05;;;0.50;;
21527;SDS011;10925;49.102;-0.370;2023-04-15T01:47:49;4.40;;;0.82;;
21527;SDS011;10925;49.102;-0.370;2023-04-15T01:50:15;7.38;;;1.33;;
21527;SDS011;10925;49.102;-0.370;2023-04-15T01:52:42;4.75;;;0.70;;
21527;SDS011;10925;49.102;-0.370;2023-04-15T01:55:10;3.85;;;0.65;;
21527;SDS011;10925;49.102;-0.370;2023-04-15T01:57:35;6.53;;;0.95;;
21527;SDS011;10925;49.102;-0.370;2023-04-15T02:00:02;3.78;;;0.98;;
21527;SDS011;10925;49.102;-0.370;2023-04-15T02:02:27;7.47;;;0.95;;
21527;SDS011;10925;49.102;-0.370;2023-04-15T02:04:53;7.68;;;0.93;;
21527;SDS011;10925;49.102;-0.370;2023-04-15T02:07:19;7.30;;;0.95;;
21527;SDS011;10925;49.102;-0.370;2023-04-15T02:09:44;5.68;;;0.90;;
21527;SDS011;10925;49.102;-0.370;2023-04-15T02:12:10;3.70;;;0.75;;
21527;SDS011;10925;49.102;-0.370;2023-04-15T02:14:39;6.75;;;1.00;;
21527;SDS011;10925;49.102;-0.370;2023-04-15T02:17:04;3.85;;;1.40;;
21527;SDS011;10925;49.102;-0.370;2023-04-15T02:19:33;7.90;;;1.30;;
21527;SDS011;10925;49.102;-0.370;2023-04-15T02:21:59;5.13;;;1.23;;
21527;SDS011;10925;49.102;-0.370;2023-04-15T02:24:26;8.43;;;1.40;;
21527;SDS011;10925;49.102;-0.370;2023-04-15T02:26:52;6.35;;;1.15;;
21527;SDS011;10925;49.102;-0.370;2023-04-15T02:29:17;5.72;;;1.25;;
21527;SDS011;10925;49.102;-0.370;2023-04-15T02:31:43;4.47;;;1.02;;
21527;SDS011;10925;49.102;-0.370;2023-04-15T02:34:09;10.52;;;1.23;;
21527;SDS011;10925;49.102;-0.370;2023-04-15T02:36:35;5.68;;;1.08;;
21527;SDS011;10925;49.102;-0.370;2023-04-15T02:39:01;5.30;;;1.00;;
21527;SDS011;10925;49.102;-0.370;2023-04-15T02:41:28;4.88;;;1.52;;
21527;SDS011;10925;49.102;-0.370;2023-04-15T02:43:54;8.38;;;1.80;;
21527;SDS011;10925;49.102;-0.370;2023-04-15T02:46:20;10.02;;;1.40;;
21527;SDS011;10925;49.102;-0.370;2023-04-15T02:48:47;8.52;;;1.70;;
21527;SDS011;10925;49.102;-0.370;2023-04-15T02:51:16;7.35;;;1.17;;
21527;SDS011;10925;49.102;-0.370;2023-04-15T02:53:44;5.40;;;0.88;;
21527;SDS011;10925;49.102;-0.370;2023-04-15T02:56:10;5.28;;;1.13;;
21527;SDS011;10925;49.102;-0.370;2023-04-15T02:58:36;4.82;;;1.10;;
21527;SDS011;10925;49.102;-0.370;2023-04-15T03:01:01;3.60;;;1.00;;
21527;SDS011;10925;49.102;-0.370;2023-04-15T03:03:27;9.07;;;1.30;;
21527;SDS011;10925;49.102;-0.370;2023-04-15T03:05:53;4.93;;;1.10;;
21527;SDS011;10925;49.102;-0.370;2023-04-15T03:08:18;2.92;;;0.93;;
21527;SDS011;10925;49.102;-0.370;2023-04-15T03:10:45;4.00;;;1.50;;
21527;SDS011;10925;49.102;-0.370;2023-04-15T03:13:11;1.83;;;0.75;;
21527;SDS011;10925;49.102;-0.370;2023-04-15T03:15:37;2.83;;;0.85;;
21527;SDS011;10925;49.102;-0.370;2023-04-15T03:18:03;3.10;;;0.98;;
21527;SDS011;10925;49.102;-0.370;2023-04-15T03:20:28;7.85;;;1.38;;
21527;SDS011;10925;49.102;-0.370;2023-04-15T03:22:54;2.47;;;0.77;;
21527;SDS011;10925;49.102;-0.370;2023-04-15T03:25:20;8.15;;;1.70;;
21527;SDS011;10925;49.102;-0.370;2023-04-15T03:27:45;5.00;;;0.90;;
21527;SDS011;10925;49.102;-0.370;2023-04-15T03:30:11;7.63;;;1.10;;
21527;SDS011;10925;49.102;-0.370;2023-04-15T03:32:37;7.30;;;1.23;;
21527;SDS011;10925;49.102;-0.370;2023-04-15T03:35:03;7.90;;;1.23;;
21527;SDS011;10925;49.102;-0.370;2023-04-15T03:37:29;5.97;;;1.05;;
21527;SDS011;10925;49.102;-0.370;2023-04-15T03:39:56;3.72;;;1.42;;
21527;SDS011;10925;49.102;-0.370;2023-04-15T03:42:23;3.58;;;1.25;;
21527;SDS011;10925;49.102;-0.370;2023-04-15T03:44:49;3.90;;;1.15;;
21527;SDS011;10925;49.102;-0.370;2023-04-15T03:47:15;5.72;;;1.52;;
21527;SDS011;10925;49.102;-0.370;2023-04-15T03:49:41;3.65;;;1.42;;
21527;SDS011;10925;49.102;-0.370;2023-04-15T03:52:07;7.82;;;1.92;;
21527;SDS011;10925;49.102;-0.370;2023-04-15T03:54:32;4.85;;;2.00;;
21527;SDS011;10925;49.102;-0.370;2023-04-15T03:56:58;11.65;;;1.92;;
21527;SDS011;10925;49.102;-0.370;2023-04-15T03:59:24;14.60;;;2.60;;
21527;SDS011;10925;49.102;-0.370;2023-04-15T04:01:49;8.63;;;1.98;;
21527;SDS011;10925;49.102;-0.370;2023-04-15T04:04:15;4.82;;;2.70;;
21527;SDS011;10925;49.102;-0.370;2023-04-15T04:06:41;7.07;;;2.05;;
21527;SDS011;10925;49.102;-0.370;2023-04-15T04:09:12;9.77;;;2.80;;
21527;SDS011;10925;49.102;-0.370;2023-04-15T04:11:38;5.90;;;2.08;;
21527;SDS011;10925;49.102;-0.370;2023-04-15T04:14:03;4.38;;;2.00;;
21527;SDS011;10925;49.102;-0.370;2023-04-15T04:16:31;1.23;;;1.00;;
21527;SDS011;10925;49.102;-0.370;2023-04-15T04:18:58;2.67;;;1.23;;
21527;SDS011;10925;49.102;-0.370;2023-04-15T04:21:24;3.80;;;1.23;;
21527;SDS011;10925;49.102;-0.370;2023-04-15T04:23:52;2.40;;;1.25;;
21527;SDS011;10925;49.102;-0.370;2023-04-15T04:26:19;5.40;;;2.25;;
21527;SDS011;10925;49.102;-0.370;2023-04-15T04:28:45;2.60;;;1.30;;
21527;SDS011;10925;49.102;-0.370;2023-04-15T04:31:13;5.32;;;1.58;;
21527;SDS011;10925;49.102;-0.370;2023-04-15T04:33:40;7.05;;;2.10;;
21527;SDS011;10925;49.102;-0.370;2023-04-15T04:36:07;5.38;;;1.90;;
21527;SDS011;10925;49.102;-0.370;2023-04-15T04:38:33;6.15;;;1.58;;
21527;SDS011;10925;49.102;-0.370;2023-04-15T04:40:58;5.00;;;1.17;;
21527;SDS011;10925;49.102;-0.370;2023-04-15T04:43:24;5.22;;;1.33;;
21527;SDS011;10925;49.102;-0.370;2023-04-15T04:45:52;2.28;;;1.27;;
21527;SDS011;10925;49.102;-0.370;2023-04-15T04:48:19;5.75;;;1.77;;
21527;SDS011;10925;49.102;-0.370;2023-04-15T04:50:46;8.05;;;2.00;;
21527;SDS011;10925;49.102;-0.370;2023-04-15T04:53:12;2.95;;;0.90;;
21527;SDS011;10925;49.102;-0.370;2023-04-15T04:55:38;6.43;;;1.70;;
21527;SDS011;10925;49.102;-0.370;2023-04-15T04:58:05;5.28;;;2.13;;
21527;SDS011;10925;49.102;-0.370;2023-04-15T05:00:31;5.25;;;1.40;;
21527;SDS011;10925;49.102;-0.370;2023-04-15T05:02:59;4.60;;;1.50;;
21527;SDS011;10925;49.102;-0.370;2023-04-15T05:05:26;6.47;;;2.10;;
21527;SDS011;10925;49.102;-0.370;2023-04-15T05:11:15;3.63;;;1.88;;
21527;SDS011;10925;49.102;-0.370;2023-04-15T05:13:42;3.35;;;1.63;;
21527;SDS011;10925;49.102;-0.370;2023-04-15T05:16:10;6.80;;;1.95;;
21527;SDS011;10925;49.102;-0.370;2023-04-15T05:18:37;7.93;;;2.05;;
21527;SDS011;10925;49.102;-0.370;2023-04-15T05:21:04;10.10;;;3.40;;
21527;SDS011;10925;49.102;-0.370;2023-04-15T05:23:32;7.03;;;1.98;;
21527;SDS011;10925;49.102;-0.370;2023-04-15T05:25:59;9.18;;;1.52;;
21527;SDS011;10925;49.102;-0.370;2023-04-15T05:28:26;7.65;;;1.90;;
21527;SDS011;10925;49.102;-0.370;2023-04-15T05:30:53;8.77;;;2.13;;
21527;SDS011;10925;49.102;-0.370;2023-04-15T05:33:20;11.73;;;2.35;;
21527;SDS011;10925;49.102;-0.370;2023-04-15T05:35:46;5.88;;;2.10;;
21527;SDS011;10925;49.102;-0.370;2023-04-15T05:38:13;5.93;;;2.03;;
21527;SDS011;10925;49.102;-0.370;2023-04-15T05:40:41;11.50;;;2.13;;
21527;SDS011;10925;49.102;-0.370;2023-04-15T05:43:08;9.40;;;2.35;;
21527;SDS011;10925;49.102;-0.370;2023-04-15T05:45:34;9.18;;;1.70;;
21527;SDS011;10925;49.102;-0.370;2023-04-15T05:47:59;2.50;;;1.10;;
21527;SDS011;10925;49.102;-0.370;2023-04-15T05:50:25;6.85;;;1.98;;
21527;SDS011;10925;49.102;-0.370;2023-04-15T05:52:52;7.13;;;1.75;;
21527;SDS011;10925;49.102;-0.370;2023-04-15T05:55:19;5.03;;;1.58;;
21527;SDS011;10925;49.102;-0.370;2023-04-15T05:57:47;7.82;;;2.20;;
21527;SDS011;10925;49.102;-0.370;2023-04-15T06:00:12;9.45;;;1.73;;
21527;SDS011;10925;49.102;-0.370;2023-04-15T06:02:40;7.38;;;2.50;;
21527;SDS011;10925;49.102;-0.370;2023-04-15T06:05:08;10.75;;;2.58;;
21527;SDS011;10925;49.102;-0.370;2023-04-15T06:07:36;10.18;;;2.50;;
21527;SDS011;10925;49.102;-0.370;2023-04-15T06:10:04;5.32;;;1.10;;
21527;SDS011;10925;49.102;-0.370;2023-04-15T06:12:30;11.13;;;2.95;;
21527;SDS011;10925;49.102;-0.370;2023-04-15T06:14:57;2.53;;;1.75;;
21527;SDS011;10925;49.102;-0.370;2023-04-15T06:17:26;6.43;;;2.40;;
21527;SDS011;10925;49.102;-0.370;2023-04-15T06:19:53;6.93;;;2.58;;
21527;SDS011;10925;49.102;-0.370;2023-04-15T06:22:21;13.85;;;3.40;;
21527;SDS011;10925;49.102;-0.370;2023-04-15T06:24:48;10.30;;;2.80;;
21527;SDS011;10925;49.102;-0.370;2023-04-15T06:27:17;8.10;;;2.90;;
21527;SDS011;10925;49.102;-0.370;2023-04-15T06:29:44;3.97;;;2.22;;
21527;SDS011;10925;49.102;-0.370;2023-04-15T06:32:12;4.55;;;1.85;;
21527;SDS011;10925;49.102;-0.370;2023-04-15T06:34:39;7.60;;;2.40;;
21527;SDS011;10925;49.102;-0.370;2023-04-15T06:37:04;11.85;;;5.32;;
21527;SDS011;10925;49.102;-0.370;2023-04-15T06:39:32;8.73;;;2.95;;
21527;SDS011;10925;49.102;-0.370;2023-04-15T06:42:09;7.00;;;2.75;;
21527;SDS011;10925;49.102;-0.370;2023-04-15T06:44:35;10.05;;;3.88;;
21527;SDS011;10925;49.102;-0.370;2023-04-15T06:47:01;9.35;;;3.75;;
21527;SDS011;10925;49.102;-0.370;2023-04-15T06:49:27;8.98;;;3.38;;
21527;SDS011;10925;49.102;-0.370;2023-04-15T06:51:54;8.05;;;3.08;;
21527;SDS011;10925;49.102;-0.370;2023-04-15T06:54:20;12.07;;;2.75;;
21527;SDS011;10925;49.102;-0.370;2023-04-15T06:56:45;7.97;;;2.38;;
21527;SDS011;10925;49.102;-0.370;2023-04-15T06:59:12;8.77;;;3.40;;
21527;SDS011;10925;49.102;-0.370;2023-04-15T07:01:41;10.05;;;1.90;;
21527;SDS011;10925;49.102;-0.370;2023-04-15T07:04:08;8.27;;;1.90;;
21527;SDS011;10925;49.102;-0.370;2023-04-15T07:06:35;10.27;;;3.50;;
21527;SDS011;10925;49.102;-0.370;2023-04-15T07:09:01;11.68;;;2.28;;
21527;SDS011;10925;49.102;-0.370;2023-04-15T07:11:29;9.50;;;3.42;;
21527;SDS011;10925;49.102;-0.370;2023-04-15T07:13:57;9.57;;;3.20;;
21527;SDS011;10925;49.102;-0.370;2023-04-15T07:16:24;6.25;;;2.30;;
21527;SDS011;10925;49.102;-0.370;2023-04-15T07:18:49;8.20;;;2.65;;
21527;SDS011;10925;49.102;-0.370;2023-04-15T07:21:15;9.27;;;4.38;;
21527;SDS011;10925;49.102;-0.370;2023-04-15T07:23:41;8.07;;;3.55;;
21527;SDS011;10925;49.102;-0.370;2023-04-15T07:26:07;4.18;;;2.58;;
21527;SDS011;10925;49.102;-0.370;2023-04-15T07:28:32;6.88;;;3.08;;
21527;SDS011;10925;49.102;-0.370;2023-04-15T07:30:58;15.13;;;4.22;;
21527;SDS011;10925;49.102;-0.370;2023-04-15T07:33:25;11.63;;;4.40;;
21527;SDS011;10925;49.102;-0.370;2023-04-15T07:35:52;10.70;;;3.60;;
21527;SDS011;10925;49.102;-0.370;2023-04-15T07:38:20;8.57;;;3.17;;
21527;SDS011;10925;49.102;-0.370;2023-04-15T07:40:45;8.98;;;3.40;;
21527;SDS011;10925;49.102;-0.370;2023-04-15T07:43:11;4.05;;;1.77;;
21527;SDS011;10925;49.102;-0.370;2023-04-15T07:45:37;8.80;;;3.35;;
21527;SDS011;10925;49.102;-0.370;2023-04-15T07:48:03;15.95;;;5.15;;
21527;SDS011;10925;49.102;-0.370;2023-04-15T07:50:29;11.35;;;3.42;;
21527;SDS011;10925;49.102;-0.370;2023-04-15T07:52:56;4.28;;;2.00;;
21527;SDS011;10925;49.102;-0.370;2023-04-15T07:58:25;12.20;;;5.60;;
21527;SDS011;10925;49.102;-0.370;2023-04-15T08:00:50;9.30;;;5.03;;
21527;SDS011;10925;49.102;-0.370;2023-04-15T08:03:20;6.95;;;3.15;;
21527;SDS011;10925;49.102;-0.370;2023-04-15T08:05:46;6.30;;;2.42;;
21527;SDS011;10925;49.102;-0.370;2023-04-15T08:08:13;5.82;;;2.53;;
21527;SDS011;10925;49.102;-0.370;2023-04-15T08:10:41;7.60;;;3.00;;
21527;SDS011;10925;49.102;-0.370;2023-04-15T08:13:08;7.43;;;2.00;;
21527;SDS011;10925;49.102;-0.370;2023-04-15T08:15:35;10.45;;;2.80;;
21527;SDS011;10925;49.102;-0.370;2023-04-15T08:18:01;8.90;;;3.03;;
21527;SDS011;10925;49.102;-0.370;2023-04-15T08:20:26;11.02;;;3.28;;
21527;SDS011;10925;49.102;-0.370;2023-04-15T08:22:52;4.05;;;2.35;;
21527;SDS011;10925;49.102;-0.370;2023-04-15T08:25:18;5.40;;;2.78;;
21527;SDS011;10925;49.102;-0.370;2023-04-15T08:27:44;5.80;;;3.20;;
21527;SDS011;10925;49.102;-0.370;2023-04-15T08:30:10;8.15;;;3.60;;
21527;SDS011;10925;49.102;-0.370;2023-04-15T08:32:36;9.60;;;3.38;;
21527;SDS011;10925;49.102;-0.370;2023-04-15T08:35:02;5.40;;;3.20;;
21527;SDS011;10925;49.102;-0.370;2023-04-15T08:37:28;13.20;;;4.38;;
21527;SDS011;10925;49.102;-0.370;2023-04-15T08:39:55;5.43;;;1.52;;
21527;SDS011;10925;49.102;-0.370;2023-04-15T08:42:29;4.15;;;1.95;;
21527;SDS011;10925;49.102;-0.370;2023-04-15T08:44:58;7.25;;;3.25;;
21527;SDS011;10925;49.102;-0.370;2023-04-15T08:47:25;6.18;;;2.05;;
21527;SDS011;10925;49.102;-0.370;2023-04-15T08:49:53;6.90;;;3.60;;
21527;SDS011;10925;49.102;-0.370;2023-04-15T08:52:19;6.45;;;2.05;;
21527;SDS011;10925;49.102;-0.370;2023-04-15T08:54:45;5.22;;;2.13;;
21527;SDS011;10925;49.102;-0.370;2023-04-15T08:57:14;7.65;;;2.58;;
21527;SDS011;10925;49.102;-0.370;2023-04-15T08:59:41;3.33;;;1.77;;
21527;SDS011;10925;49.102;-0.370;2023-04-15T09:02:10;4.25;;;1.92;;
21527;SDS011;10925;49.102;-0.370;2023-04-15T09:04:36;5.90;;;2.50;;
21527;SDS011;10925;49.102;-0.370;2023-04-15T09:07:01;6.30;;;2.40;;
21527;SDS011;10925;49.102;-0.370;2023-04-15T09:09:27;5.13;;;1.73;;
21527;SDS011;10925;49.102;-0.370;2023-04-15T09:11:53;2.58;;;1.25;;
21527;SDS011;10925;49.102;-0.370;2023-04-15T09:14:18;4.43;;;1.80;;
21527;SDS011;10925;49.102;-0.370;2023-04-15T09:16:57;7.75;;;2.20;;
21527;SDS011;10925;49.102;-0.370;2023-04-15T09:19:23;6.65;;;2.75;;
21527;SDS011;10925;49.102;-0.370;2023-04-15T09:24:37;6.50;;;2.78;;
21527;SDS011;10925;49.102;-0.370;2023-04-15T09:27:03;6.05;;;2.65;;
21527;SDS011;10925;49.102;-0.370;2023-04-15T09:29:29;8.05;;;4.00;;
21527;SDS011;10925;49.102;-0.370;2023-04-15T09:31:54;8.43;;;2.97;;
21527;SDS011;10925;49.102;-0.370;2023-04-15T09:34:20;6.75;;;3.00;;
21527;SDS011;10925;49.102;-0.370;2023-04-15T09:39:12;8.52;;;5.15;;
21527;SDS011;10925;49.102;-0.370;2023-04-15T09:41:38;10.15;;;3.38;;
21527;SDS011;10925;49.102;-0.370;2023-04-15T09:44:04;15.30;;;8.02;;
21527;SDS011;10925;49.102;-0.370;2023-04-15T09:46:40;9.68;;;3.03;;
21527;SDS011;10925;49.102;-0.370;2023-04-15T09:49:06;9.25;;;2.53;;
21527;SDS011;10925;49.102;-0.370;2023-04-15T09:51:36;7.57;;;2.92;;
21527;SDS011;10925;49.102;-0.370;2023-04-15T09:54:03;11.75;;;3.38;;
21527;SDS011;10925;49.102;-0.370;2023-04-15T09:56:35;8.95;;;2.65;;
21527;SDS011;10925;49.102;-0.370;2023-04-15T09:59:06;8.25;;;2.50;;
21527;SDS011;10925;49.102;-0.370;2023-04-15T10:01:32;8.82;;;3.83;;
21527;SDS011;10925;49.102;-0.370;2023-04-15T10:03:58;7.13;;;2.88;;
21527;SDS011;10925;49.102;-0.370;2023-04-15T10:06:27;8.63;;;4.25;;
21527;SDS011;10925;49.102;-0.370;2023-04-15T10:08:53;5.53;;;2.30;;
21527;SDS011;10925;49.102;-0.370;2023-04-15T10:11:18;7.03;;;3.08;;
21527;SDS011;10925;49.102;-0.370;2023-04-15T10:13:44;7.95;;;2.42;;
21527;SDS011;10925;49.102;-0.370;2023-04-15T10:16:12;13.10;;;3.83;;
21527;SDS011;10925;49.102;-0.370;2023-04-15T10:18:40;9.13;;;3.92;;
21527;SDS011;10925;49.102;-0.370;2023-04-15T10:21:07;15.52;;;9.15;;
21527;SDS011;10925;49.102;-0.370;2023-04-15T10:23:33;4.82;;;2.72;;
21527;SDS011;10925;49.102;-0.370;2023-04-15T10:25:59;9.43;;;2.60;;
21527;SDS011;10925;49.102;-0.370;2023-04-15T10:28:24;7.22;;;2.63;;
21527;SDS011;10925;49.102;-0.370;2023-04-15T10:30:51;13.57;;;2.03;;
21527;SDS011;10925;49.102;-0.370;2023-04-15T10:33:17;5.90;;;2.25;;
21527;SDS011;10925;49.102;-0.370;2023-04-15T10:35:47;10.40;;;2.55;;
21527;SDS011;10925;49.102;-0.370;2023-04-15T10:38:34;9.70;;;2.80;;
21527;SDS011;10925;49.102;-0.370;2023-04-15T10:43:48;8.35;;;2.33;;
21527;SDS011;10925;49.102;-0.370;2023-04-15T10:46:18;4.72;;;2.00;;
21527;SDS011;10925;49.102;-0.370;2023-04-15T10:48:50;8.02;;;2.90;;
21527;SDS011;10925;49.102;-0.370;2023-04-15T10:51:25;8.15;;;3.10;;
21527;SDS011;10925;49.102;-0.370;2023-04-15T10:53:54;13.30;;;2.78;;
21527;SDS011;10925;49.102;-0.370;2023-04-15T10:56:20;8.80;;;2.63;;
21527;SDS011;10925;49.102;-0.370;2023-04-15T10:58:46;5.70;;;2.20;;
21527;SDS011;10925;49.102;-0.370;2023-04-15T11:01:13;9.50;;;5.03;;
21527;SDS011;10925;49.102;-0.370;2023-04-15T11:03:41;8.98;;;3.30;;
21527;SDS011;10925;49.102;-0.370;2023-04-15T11:06:09;7.05;;;3.60;;
21527;SDS011;10925;49.102;-0.370;2023-04-15T11:08:55;7.97;;;2.58;;
21527;SDS011;10925;49.102;-0.370;2023-04-15T11:11:21;10.63;;;2.15;;
21527;SDS011;10925;49.102;-0.370;2023-04-15T11:13:47;10.50;;;2.90;;
21527;SDS011;10925;49.102;-0.370;2023-04-15T11:16:13;11.75;;;3.40;;
21527;SDS011;10925;49.102;-0.370;2023-04-15T11:18:39;10.68;;;3.45;;
21527;SDS011;10925;49.102;-0.370;2023-04-15T11:21:06;6.47;;;3.28;;
21527;SDS011;10925;49.102;-0.370;2023-04-15T11:35:46;13.70;;;6.28;;
21527;SDS011;10925;49.102;-0.370;2023-04-15T11:38:14;9.73;;;4.75;;
21527;SDS011;10925;49.102;-0.370;2023-04-15T11:40:42;8.15;;;4.22;;
21527;SDS011;10925;49.102;-0.370;2023-04-15T11:43:16;9.85;;;3.83;;
21527;SDS011;10925;49.102;-0.370;2023-04-15T11:45:53;8.50;;;5.07;;
21527;SDS011;10925;49.102;-0.370;2023-04-15T11:48:22;14.82;;;4.95;;
21527;SDS011;10925;49.102;-0.370;2023-04-15T11:50:59;10.68;;;4.88;;
21527;SDS011;10925;49.102;-0.370;2023-04-15T11:53:51;15.77;;;5.43;;
21527;SDS011;10925;49.102;-0.370;2023-04-15T11:56:17;12.10;;;5.75;;
21527;SDS011;10925;49.102;-0.370;2023-04-15T11:58:42;16.38;;;6.18;;
21527;SDS011;10925;49.102;-0.370;2023-04-15T12:01:12;7.88;;;3.78;;
21527;SDS011;10925;49.102;-0.370;2023-04-15T12:03:39;13.60;;;5.50;;
21527;SDS011;10925;49.102;-0.370;2023-04-15T12:06:09;7.47;;;4.20;;
21527;SDS011;10925;49.102;-0.370;2023-04-15T12:11:16;10.80;;;3.92;;
21527;SDS011;10925;49.102;-0.370;2023-04-15T12:13:43;11.95;;;6.05;;
21527;SDS011;10925;49.102;-0.370;2023-04-15T12:16:11;14.80;;;6.38;;
21527;SDS011;10925;49.102;-0.370;2023-04-15T12:18:38;7.15;;;4.30;;
21527;SDS011;10925;49.102;-0.370;2023-04-15T12:21:13;14.65;;;6.32;;
21527;SDS011;10925;49.102;-0.370;2023-04-15T12:23:47;11.40;;;4.57;;
21527;SDS011;10925;49.102;-0.370;2023-04-15T12:26:13;11.35;;;5.15;;
21527;SDS011;10925;49.102;-0.370;2023-04-15T12:28:41;10.60;;;5.00;;
21527;SDS011;10925;49.102;-0.370;2023-04-15T12:31:08;10.50;;;5.13;;
21527;SDS011;10925;49.102;-0.370;2023-04-15T12:33:35;11.32;;;4.63;;
21527;SDS011;10925;49.102;-0.370;2023-04-15T12:36:04;13.77;;;5.97;;
21527;SDS011;10925;49.102;-0.370;2023-04-15T12:38:31;11.82;;;6.07;;
21527;SDS011;10925;49.102;-0.370;2023-04-15T12:40:57;8.90;;;5.32;;
21527;SDS011;10925;49.102;-0.370;2023-04-15T12:43:22;6.65;;;3.88;;
21527;SDS011;10925;49.102;-0.370;2023-04-15T12:45:48;7.72;;;3.67;;
21527;SDS011;10925;49.102;-0.370;2023-04-15T12:48:15;8.82;;;4.10;;
21527;SDS011;10925;49.102;-0.370;2023-04-15T12:50:43;10.48;;;4.05;;
21527;SDS011;10925;49.102;-0.370;2023-04-15T12:53:10;8.63;;;4.63;;
21527;SDS011;10925;49.102;-0.370;2023-04-15T12:55:37;11.13;;;5.07;;
21527;SDS011;10925;49.102;-0.370;2023-04-15T12:58:04;8.93;;;4.05;;
21527;SDS011;10925;49.102;-0.370;2023-04-15T13:00:32;10.10;;;4.90;;
21527;SDS011;10925;49.102;-0.370;2023-04-15T13:02:59;10.40;;;3.90;;
21527;SDS011;10925;49.102;-0.370;2023-04-15T13:05:33;12.13;;;4.03;;
21527;SDS011;10925;49.102;-0.370;2023-04-15T13:08:01;10.93;;;4.82;;
21527;SDS011;10925;49.102;-0.370;2023-04-15T13:10:38;13.23;;;5.70;;
21527;SDS011;10925;49.102;-0.370;2023-04-15T13:13:10;10.60;;;4.40;;
21527;SDS011;10925;49.102;-0.370;2023-04-15T13:15:36;8.45;;;4.85;;
21527;SDS011;10925;49.102;-0.370;2023-04-15T13:18:05;7.90;;;5.03;;
21527;SDS011;10925;49.102;-0.370;2023-04-15T13:20:32;9.10;;;4.90;;
21527;SDS011;10925;49.102;-0.370;2023-04-15T13:22:58;10.00;;;5.03;;
21527;SDS011;10925;49.102;-0.370;2023-04-15T13:25:24;9.45;;;5.20;;
21527;SDS011;10925;49.102;-0.370;2023-04-15T13:27:50;10.45;;;4.32;;
21527;SDS011;10925;49.102;-0.370;2023-04-15T13:30:15;9.95;;;5.65;;
21527;SDS011;10925;49.102;-0.370;2023-04-15T13:32:41;9.30;;;4.63;;
21527;SDS011;10925;49.102;-0.370;2023-04-15T13:35:08;7.45;;;4.30;;
21527;SDS011;10925;49.102;-0.370;2023-04-15T13:37:36;11.02;;;5.22;;
21527;SDS011;10925;49.102;-0.370;2023-04-15T13:40:03;8.13;;;4.18;;
21527;SDS011;10925;49.102;-0.370;2023-04-15T13:42:32;10.85;;;5.72;;
21527;SDS011;10925;49.102;-0.370;2023-04-15T13:45:00;12.35;;;4.15;;
21527;SDS011;10925;49.102;-0.370;2023-04-15T13:47:27;8.23;;;4.45;;
21527;SDS011;10925;49.102;-0.370;2023-04-15T13:49:54;11.57;;;6.00;;
21527;SDS011;10925;49.102;-0.370;2023-04-15T13:52:25;8.18;;;3.63;;
21527;SDS011;10925;49.102;-0.370;2023-04-15T13:54:53;8.50;;;4.38;;
21527;SDS011;10925;49.102;-0.370;2023-04-15T13:57:18;8.00;;;5.18;;
21527;SDS011;10925;49.102;-0.370;2023-04-15T13:59:44;8.25;;;4.40;;
21527;SDS011;10925;49.102;-0.370;2023-04-15T14:02:10;11.52;;;4.53;;
21527;SDS011;10925;49.102;-0.370;2023-04-15T14:04:36;4.95;;;2.80;;
21527;SDS011;10925;49.102;-0.370;2023-04-15T14:07:02;7.63;;;4.30;;
21527;SDS011;10925;49.102;-0.370;2023-04-15T14:09:28;8.52;;;5.03;;
21527;SDS011;10925;49.102;-0.370;2023-04-15T14:11:56;9.50;;;4.75;;
21527;SDS011;10925;49.102;-0.370;2023-04-15T14:14:24;7.25;;;4.35;;
21527;SDS011;10925;49.102;-0.370;2023-04-15T14:16:51;7.40;;;4.00;;
21527;SDS011;10925;49.102;-0.370;2023-04-15T14:19:17;10.45;;;4.90;;
21527;SDS011;10925;49.102;-0.370;2023-04-15T14:21:42;12.07;;;4.63;;
21527;SDS011;10925;49.102;-0.370;2023-04-15T14:24:08;10.10;;;5.00;;
21527;SDS011;10925;49.102;-0.370;2023-04-15T14:26:34;7.28;;;4.45;;
21527;SDS011;10925;49.102;-0.370;2023-04-15T14:28:59;7.57;;;4.38;;
21527;SDS011;10925;49.102;-0.370;2023-04-15T14:31:26;6.60;;;4.70;;
21527;SDS011;10925;49.102;-0.370;2023-04-15T14:33:53;8.50;;;4.22;;
21527;SDS011;10925;49.102;-0.370;2023-04-15T14:36:20;10.20;;;4.18;;
21527;SDS011;10925;49.102;-0.370;2023-04-15T14:38:47;7.45;;;3.40;;
21527;SDS011;10925;49.102;-0.370;2023-04-15T14:44:05;9.85;;;3.40;;
21527;SDS011;10925;49.102;-0.370;2023-04-15T14:46:48;8.20;;;4.23;;
21527;SDS011;10925;49.102;-0.370;2023-04-15T14:49:19;9.30;;;4.28;;
21527;SDS011;10925;49.102;-0.370;2023-04-15T14:51:45;7.18;;;3.60;;
21527;SDS011;10925;49.102;-0.370;2023-04-15T14:54:10;10.10;;;4.40;;
21527;SDS011;10925;49.102;-0.370;2023-04-15T14:56:36;10.68;;;4.80;;
21527;SDS011;10925;49.102;-0.370;2023-04-15T14:59:02;8.88;;;4.35;;
21527;SDS011;10925;49.102;-0.370;2023-04-15T15:01:27;9.25;;;5.07;;
21527;SDS011;10925;49.102;-0.370;2023-04-15T15:03:54;8.68;;;4.05;;
21527;SDS011;10925;49.102;-0.370;2023-04-15T15:06:20;7.38;;;4.40;;
21527;SDS011;10925;49.102;-0.370;2023-04-15T15:08:47;10.43;;;5.45;;
21527;SDS011;10925;49.102;-0.370;2023-04-15T15:11:13;9.77;;;4.93;;
21527;SDS011;10925;49.102;-0.370;2023-04-15T15:13:39;8.73;;;4.95;;